ID Time Temp Humidity Light PM2.5 PM10 Voltage Extra Firmware Position Fcnt TTN version Gateways Distance RSSI LSNR Radiosettings
2022-05-26 05:43:27 -26°C -26% 3.38V v1 52.1991 / 5.41211 4406 ttn.v3 unknown 0.003km -75 11.5 868.3MHz, SF9BW125, 4/5CR
2022-05-26 05:26:29 -26°C -26% 3.38V v1 52.1991 / 5.41211 4405 ttn.v3 unknown 0.003km -71 9 867.5MHz, SF9BW125, 4/5CR
2.952km -115 -10 867.5MHz, SF9BW125, 4/5CR
unknown 2.952km -115 -10 867.5MHz, SF9BW125, 4/5CR
2022-05-26 05:09:31 -26°C -26% 3.38V v1 52.1991 / 5.41211 4404 ttn.v3 unknown 0.003km -79 12.5 868.1MHz, SF9BW125, 4/5CR
2022-05-26 04:52:33 -26°C -26% 3.38V v1 52.1991 / 5.41211 4403 ttn.v3 unknown 0.003km -71 12.75 867.3MHz, SF9BW125, 4/5CR
2.952km -119 -9.25 867.3MHz, SF9BW125, 4/5CR
unknown 2.952km -119 -9.25 867.3MHz, SF9BW125, 4/5CR
2022-05-26 04:35:35 -26°C -26% 3.38V v1 52.1991 / 5.41211 4402 ttn.v3 unknown 0.003km -79 9.25 868.5MHz, SF9BW125, 4/5CR
2022-05-26 04:18:37 -26°C -26% 3.38V v1 52.1991 / 5.41211 4401 ttn.v3 unknown 0.003km -77 13 867.1MHz, SF9BW125, 4/5CR
2022-05-26 04:01:39 -26°C -26% 3.38V v1 52.1991 / 5.41211 4400 ttn.v3 unknown 0.003km -79 12.25 868.3MHz, SF9BW125, 4/5CR
2022-05-26 03:44:41 -26°C -26% 3.38V v1 52.1991 / 5.41211 4399 ttn.v3 unknown 0.003km -78 13 867.9MHz, SF9BW125, 4/5CR
2022-05-26 03:27:42 -26°C -26% 3.38V v1 52.1991 / 5.41211 4398 ttn.v3 unknown 0.003km -79 12.5 868.1MHz, SF9BW125, 4/5CR
2022-05-26 03:10:44 -26°C -26% 3.38V v1 52.1991 / 5.41211 4397 ttn.v3 unknown 0.003km -77 13.5 867.7MHz, SF9BW125, 4/5CR
2022-05-26 02:53:46 -26°C -26% 3.38V v1 52.1991 / 5.41211 4396 ttn.v3 unknown 0.003km -79 9.25 868.5MHz, SF9BW125, 4/5CR
2022-05-26 02:36:48 -26°C -26% 3.38V v1 52.1991 / 5.41211 4395 ttn.v3 unknown 0.003km -75 9.5 867.5MHz, SF9BW125, 4/5CR
2.952km -116 -10.5 867.5MHz, SF9BW125, 4/5CR
unknown 2.952km -116 -10.5 867.5MHz, SF9BW125, 4/5CR
2022-05-26 02:19:50 -26°C -26% 3.38V v1 52.1991 / 5.41211 4394 ttn.v3 unknown 0.003km -77 11.75 868.3MHz, SF9BW125, 4/5CR
2022-05-26 02:02:52 -26°C -26% 3.38V v1 52.1991 / 5.41211 4393 ttn.v3 unknown 0.003km -75 13.75 867.3MHz, SF9BW125, 4/5CR
2022-05-26 01:45:54 -26°C -26% 3.38V v1 52.1991 / 5.41211 4392 ttn.v3 unknown 0.003km -81 12.75 868.1MHz, SF9BW125, 4/5CR
2022-05-26 01:28:56 -26°C -26% 3.38V v1 52.1991 / 5.41211 4391 ttn.v3 unknown 0.003km -72 11.5 867.1MHz, SF9BW125, 4/5CR
2.952km -117 -13 867.1MHz, SF9BW125, 4/5CR
unknown 2.952km -117 -13 867.1MHz, SF9BW125, 4/5CR
2022-05-26 01:11:58 -26°C -26% 3.38V v1 52.1991 / 5.41211 4390 ttn.v3 unknown 0.003km -83 8.75 868.5MHz, SF9BW125, 4/5CR
2.952km -117 -11.5 868.5MHz, SF9BW125, 4/5CR
unknown 2.952km -117 -11.5 868.5MHz, SF9BW125, 4/5CR
2022-05-26 00:55:00 -26°C -26% 3.38V v1 52.1991 / 5.41211 4389 ttn.v3 unknown 0.003km -75 12.5 867.9MHz, SF9BW125, 4/5CR
6.972km -120 -13.75 867.9MHz, SF9BW125, 4/5CR
2022-05-26 00:38:02 -26°C -26% 3.38V v1 52.1991 / 5.41211 4388 ttn.v3 unknown 0.003km -77 12.75 868.3MHz, SF9BW125, 4/5CR
2022-05-26 00:21:04 -26°C -26% 3.38V v1 52.1991 / 5.41211 4387 ttn.v3 unknown 0.003km -77 12.25 867.7MHz, SF9BW125, 4/5CR
unknown 2.952km -116 -10 867.7MHz, SF9BW125, 4/5CR
2.952km -116 -10 867.7MHz, SF9BW125, 4/5CR
2022-05-26 00:04:06 -26°C -26% 3.38V v1 52.1991 / 5.41211 4386 ttn.v3 unknown 0.003km -81 12.75 868.1MHz, SF9BW125, 4/5CR
2022-05-25 23:47:08 -26°C -26% 3.38V v1 52.1991 / 5.41211 4385 ttn.v3 unknown 0.003km -75 9 867.5MHz, SF9BW125, 4/5CR
2022-05-25 23:30:10 -26°C -26% 3.38V v1 52.1991 / 5.41211 4384 ttn.v3 unknown 0.003km -73 8.5 868.5MHz, SF9BW125, 4/5CR
2.952km -114 -13.5 868.5MHz, SF9BW125, 4/5CR
unknown 2.952km -114 -13.5 868.5MHz, SF9BW125, 4/5CR
2022-05-25 23:13:12 -26°C -26% 3.38V v1 52.1991 / 5.41211 4383 ttn.v3 unknown 0.003km -77 13 867.3MHz, SF9BW125, 4/5CR
2022-05-25 22:56:14 -26°C -26% 3.38V v1 52.1991 / 5.41211 4382 ttn.v3 unknown 0.003km -75 12.25 868.3MHz, SF9BW125, 4/5CR
2022-05-25 22:39:17 -26°C -26% 3.38V v1 52.1991 / 5.41211 4381 ttn.v3 unknown 0.003km -77 13 867.1MHz, SF9BW125, 4/5CR
6.972km -121 -12 867.1MHz, SF9BW125, 4/5CR
2022-05-25 22:22:19 -26°C -26% 3.38V v1 52.1991 / 5.41211 4380 ttn.v3 unknown 0.003km -79 13 868.1MHz, SF9BW125, 4/5CR
2022-05-25 22:05:21 -26°C -26% 3.38V v1 52.1991 / 5.41211 4379 ttn.v3 unknown 0.003km -77 10.5 867.9MHz, SF9BW125, 4/5CR
2.952km -117 -9.25 867.9MHz, SF9BW125, 4/5CR
unknown 2.952km -117 -9.25 867.9MHz, SF9BW125, 4/5CR
2022-05-25 21:48:23 -26°C -26% 3.38V v1 52.1991 / 5.41211 4378 ttn.v3 unknown 0.003km -83 9 868.5MHz, SF9BW125, 4/5CR
2022-05-25 21:31:25 -26°C -26% 3.38V v1 52.1991 / 5.41211 4377 ttn.v3 unknown 0.003km -73 12.25 867.7MHz, SF9BW125, 4/5CR
unknown 2.952km -119 -7.75 867.7MHz, SF9BW125, 4/5CR
2.952km -119 -7.75 867.7MHz, SF9BW125, 4/5CR
6.972km -119 -13.25 867.7MHz, SF9BW125, 4/5CR
2022-05-25 21:14:27 -26°C -26% 3.38V v1 52.1991 / 5.41211 4376 ttn.v3 unknown 0.003km -75 12 868.3MHz, SF9BW125, 4/5CR
2022-05-25 20:40:32 -26°C -26% 3.38V v1 52.1991 / 5.41211 4374 ttn.v3 unknown 0.003km -77 12.25 868.1MHz, SF9BW125, 4/5CR
2022-05-25 20:23:34 -26°C -26% 3.38V v1 52.1991 / 5.41211 4373 ttn.v3 unknown 0.003km -75 12.75 867.3MHz, SF9BW125, 4/5CR
unknown 2.952km -116 -8.5 867.3MHz, SF9BW125, 4/5CR
2.952km -116 -8.5 867.3MHz, SF9BW125, 4/5CR
6.972km -119 -13.5 867.3MHz, SF9BW125, 4/5CR
2022-05-25 20:06:36 -26°C -26% 3.38V v1 52.1991 / 5.41211 4372 ttn.v3 unknown 0.003km -77 9.25 868.5MHz, SF9BW125, 4/5CR
2022-05-25 19:49:38 -26°C -26% 3.38V v1 52.1991 / 5.41211 4371 ttn.v3 unknown 0.003km -77 13 867.1MHz, SF9BW125, 4/5CR
6.972km -120 -13 867.1MHz, SF9BW125, 4/5CR
2022-05-25 19:32:40 -26°C -26% 3.38V v1 52.1991 / 5.41211 4370 ttn.v3 unknown 0.003km -79 13.25 868.3MHz, SF9BW125, 4/5CR
2.952km -119 -13.75 868.3MHz, SF9BW125, 4/5CR
unknown 2.952km -119 -13.75 868.3MHz, SF9BW125, 4/5CR
2022-05-25 19:15:42 -26°C -26% 3.38V v1 52.1991 / 5.41211 4369 ttn.v3 unknown 0.003km -77 12.25 867.9MHz, SF9BW125, 4/5CR
6.972km -121 -12.5 867.9MHz, SF9BW125, 4/5CR
2022-05-25 18:58:44 -26°C -26% 3.38V v1 52.1991 / 5.41211 4368 ttn.v3 unknown 0.003km -81 12.25 868.1MHz, SF9BW125, 4/5CR
2022-05-25 18:41:45 -26°C -26% 3.38V v1 52.1991 / 5.41211 4367 ttn.v3 unknown 0.003km -77 14 867.7MHz, SF9BW125, 4/5CR
2022-05-25 18:24:47 -26°C -26% 3.38V v1 52.1991 / 5.41211 4366 ttn.v3 unknown 0.003km -79 9 868.5MHz, SF9BW125, 4/5CR
2.952km -116 -11.25 868.5MHz, SF9BW125, 4/5CR
unknown 2.952km -116 -11.25 868.5MHz, SF9BW125, 4/5CR
2022-05-25 18:07:48 -26°C -26% 3.38V v1 52.1991 / 5.41211 4365 ttn.v3 unknown 0.003km -72 9.25 867.5MHz, SF9BW125, 4/5CR
2.952km -116 -12.75 867.5MHz, SF9BW125, 4/5CR
unknown 2.952km -116 -12.75 867.5MHz, SF9BW125, 4/5CR
2022-05-25 17:50:49 -26°C -26% 3.38V v1 52.1991 / 5.41211 4364 ttn.v3 unknown 0.003km -77 12.25 868.3MHz, SF9BW125, 4/5CR
2.952km -117 -10 868.3MHz, SF9BW125, 4/5CR
unknown 2.952km -117 -10 868.3MHz, SF9BW125, 4/5CR
2022-05-25 17:33:50 -26°C -26% 3.38V v1 52.1991 / 5.41211 4363 ttn.v3 unknown 0.003km -75 13.5 867.3MHz, SF9BW125, 4/5CR
2.952km -117 -11.5 867.3MHz, SF9BW125, 4/5CR
unknown 2.952km -117 -11.5 867.3MHz, SF9BW125, 4/5CR
2022-05-25 17:16:52 -26°C -26% 3.38V v1 52.1991 / 5.41211 4362 ttn.v3 unknown 0.003km -77 12.25 868.1MHz, SF9BW125, 4/5CR
2022-05-25 16:59:52 -26°C -26% 3.38V v1 52.1991 / 5.41211 4361 ttn.v3 unknown 0.003km -71 11.5 867.1MHz, SF9BW125, 4/5CR
2.952km -117 -13.25 867.1MHz, SF9BW125, 4/5CR
unknown 2.952km -117 -13.25 867.1MHz, SF9BW125, 4/5CR
2022-05-25 16:42:53 -26°C -26% 3.38V v1 52.1991 / 5.41211 4360 ttn.v3 unknown 0.003km -77 8.5 868.5MHz, SF9BW125, 4/5CR
2022-05-25 16:25:54 -26°C -26% 3.38V v1 52.1991 / 5.41211 4359 ttn.v3 unknown 0.003km -77 12.75 867.9MHz, SF9BW125, 4/5CR
2.952km -117 -13.5 867.9MHz, SF9BW125, 4/5CR
unknown 2.952km -117 -13.5 867.9MHz, SF9BW125, 4/5CR
2022-05-25 16:08:55 -26°C -26% 3.38V v1 52.1991 / 5.41211 4358 ttn.v3 unknown 0.003km -77 12.25 868.3MHz, SF9BW125, 4/5CR
2.952km -115 -11.25 868.3MHz, SF9BW125, 4/5CR
unknown 2.952km -115 -11.25 868.3MHz, SF9BW125, 4/5CR
2022-05-25 15:51:56 -26°C -26% 3.38V v1 52.1991 / 5.41211 4357 ttn.v3 unknown 0.003km -75 13.5 867.7MHz, SF9BW125, 4/5CR
2022-05-25 15:34:57 -26°C -26% 3.38V v1 52.1991 / 5.41211 4356 ttn.v3 unknown 0.003km -81 14 868.1MHz, SF9BW125, 4/5CR

Message count: 50
Node count: 1

Messages per node

Number of messages in list aboveNodes
50

Statistics per gateway

GatewayNumber of messagesNumber of nodesNodes
unknown681 (0.003km)
181 (2.952km)
61 (6.972km)

Filter by dataset